Time;durP1;ratioP1;P1;durP2;ratioP2;P2;SDS_P1;SDS_P2;PMS_P1;PMS_P2;Temp;Humidity;BMP_temperature;BMP_pressure;BME280_temperature;BME280_humidity;BME280_pressure;Samples;Min_cycle;Max_cycle;Signal;HPM_P1;HPM_P2
2021/07/06 00:00:00;;;;;;;17.38;13.20;;;;;;;17.43;96.04;94647.94;5089896;28;20093;-69
2021/07/06 00:02:37;;;;;;;20.52;12.63;;;;;;;17.41;96.31;94650.84;5087893;28;20051;-70
2021/07/06 00:05:06;;;;;;;21.27;14.32;;;;;;;17.41;95.51;94639.53;5092999;28;20108;-70
2021/07/06 00:07:33;;;;;;;20.55;13.32;;;;;;;17.34;96.19;94645.09;5087833;28;20505;-69
2021/07/06 00:10:00;;;;;;;18.80;13.40;;;;;;;17.30;96.48;94660.66;5088455;28;20055;-69
2021/07/06 00:12:27;;;;;;;23.60;13.13;;;;;;;17.22;96.24;94648.13;5086075;28;20592;-69
2021/07/06 00:14:54;;;;;;;22.35;14.30;;;;;;;17.18;96.56;94641.84;5092147;28;20440;-69
2021/07/06 00:17:21;;;;;;;18.23;14.05;;;;;;;17.23;95.81;94644.41;5091626;28;20109;-69
2021/07/06 00:19:49;;;;;;;19.27;13.45;;;;;;;17.28;95.47;94652.28;5093670;28;20044;-69
2021/07/06 00:22:16;;;;;;;19.58;14.23;;;;;;;17.22;94.90;94642.88;5092680;28;22014;-69
2021/07/06 00:24:44;;;;;;;16.50;13.77;;;;;;;17.23;94.91;94644.41;5087142;28;20576;-69
2021/07/06 00:27:11;;;;;;;20.10;14.38;;;;;;;17.09;96.39;94633.00;5085317;28;20051;-69
2021/07/06 00:29:38;;;;;;;16.33;14.10;;;;;;;17.18;97.09;94653.16;5087824;28;20044;-69
2021/07/06 00:32:05;;;;;;;19.70;14.18;;;;;;;17.19;95.33;94653.94;5093918;28;20040;-69
2021/07/06 00:34:32;;;;;;;17.80;14.05;;;;;;;17.16;95.18;94649.22;5089370;28;20036;-69
2021/07/06 00:36:59;;;;;;;17.02;13.77;;;;;;;17.19;95.22;94653.94;5090769;28;20051;-69
2021/07/06 00:39:26;;;;;;;24.55;13.90;;;;;;;17.16;94.76;94665.00;5085662;28;20048;-69
2021/07/06 00:41:53;;;;;;;22.83;14.75;;;;;;;17.08;94.05;94653.22;5087532;28;20066;-69
2021/07/06 00:44:21;;;;;;;25.25;15.45;;;;;;;17.04;95.24;94661.97;5092066;28;20121;-69
2021/07/06 00:46:48;;;;;;;24.05;16.10;;;;;;;17.02;95.59;94664.09;5084203;28;20040;-68
2021/07/06 00:49:15;;;;;;;24.67;15.80;;;;;;;16.97;96.44;94663.06;5089555;28;20047;-69
2021/07/06 00:51:42;;;;;;;24.88;15.27;;;;;;;17.03;96.19;94671.69;5092220;28;20028;-69
2021/07/06 00:54:11;;;;;;;29.63;14.65;;;;;;;16.92;94.99;94670.97;5085483;28;20075;-69
2021/07/06 00:56:38;;;;;;;23.45;15.93;;;;;;;16.93;96.41;94672.56;5088336;28;20603;-69
2021/07/06 00:59:05;;;;;;;23.95;15.57;;;;;;;16.94;97.21;94674.16;5093060;28;20050;-69
2021/07/06 01:01:32;;;;;;;20.20;15.40;;;;;;;16.85;97.61;94667.88;5087896;28;20044;-69
2021/07/06 01:03:59;;;;;;;19.55;15.00;;;;;;;16.85;97.05;94670.50;5084686;28;20052;-69
2021/07/06 01:06:25;;;;;;;21.63;14.20;;;;;;;16.86;97.06;94666.81;5089330;28;20039;-69
2021/07/06 01:08:53;;;;;;;22.08;15.68;;;;;;;16.90;95.83;94677.59;5085803;28;20040;-69
2021/07/06 01:11:20;;;;;;;20.48;14.63;;;;;;;16.91;94.88;94679.94;5091051;28;20152;-69
2021/07/06 01:13:48;;;;;;;20.48;14.95;;;;;;;16.81;94.59;94670.22;5089660;28;20032;-70
2021/07/06 01:16:15;;;;;;;27.58;15.45;;;;;;;16.69;95.41;94661.13;5086335;28;20044;-69
2021/07/06 01:18:43;;;;;;;21.02;16.42;;;;;;;16.72;96.71;94674.50;5088364;28;20038;-69
2021/07/06 01:21:10;;;;;;;20.15;16.85;;;;;;;16.71;98.01;94664.25;5091983;28;20065;-69
2021/07/06 01:23:37;;;;;;;21.23;15.23;;;;;;;16.75;97.82;94673.19;5070075;28;20036;-69
2021/07/06 01:26:07;;;;;;;26.45;16.13;;;;;;;16.05;100.00;94679.31;5090598;28;20043;-69
2021/07/06 01:28:35;;;;;;;31.33;17.02;;;;;;;15.80;98.77;94678.34;5085838;28;21811;-69
2021/07/06 01:31:02;;;;;;;30.23;16.83;;;;;;;15.64;100.00;94663.66;5092896;28;20035;-69
2021/07/06 01:33:31;;;;;;;34.42;17.48;;;;;;;15.62;100.00;94678.88;5092552;28;20036;-69
2021/07/06 01:36:03;;;;;;;25.98;18.05;;;;;;;15.67;100.00;94663.91;5086936;28;20048;-69
2021/07/06 01:38:31;;;;;;;27.83;15.27;;;;;;;15.75;100.00;94667.84;5087642;28;20052;-68
2021/07/06 01:41:00;;;;;;;32.95;14.90;;;;;;;15.89;98.48;94680.44;5085225;28;20055;-68
2021/07/06 01:43:28;;;;;;;29.83;14.15;;;;;;;15.93;98.05;94682.25;5087354;28;20721;-69
2021/07/06 01:45:55;;;;;;;33.75;16.02;;;;;;;15.95;96.84;94681.97;5085257;28;20423;-69
2021/07/06 01:48:22;;;;;;;42.58;16.80;;;;;;;15.93;96.67;94671.72;5085343;28;20047;-68
2021/07/06 01:50:48;;;;;;;41.63;17.08;;;;;;;15.82;97.73;94660.47;5088603;28;20044;-69
2021/07/06 01:53:21;;;;;;;37.28;17.20;;;;;;;15.99;97.43;94672.50;5088764;28;20036;-69
2021/07/06 01:55:51;;;;;;;31.95;16.70;;;;;;;15.98;97.48;94668.31;5086194;28;20498;-68
2021/07/06 01:58:20;;;;;;;31.77;15.00;;;;;;;16.03;96.31;94673.56;5084296;28;20467;-68
2021/07/06 02:00:57;;;;;;;24.92;14.95;;;;;;;16.08;95.89;94678.00;5084857;28;20093;-68
2021/07/06 02:03:24;;;;;;;26.77;14.48;;;;;;;15.97;96.41;94651.78;5091153;28;20036;-68
2021/07/06 02:05:56;;;;;;;27.67;14.38;;;;;;;16.09;94.99;94675.09;5091189;28;20043;-68
2021/07/06 02:08:24;;;;;;;28.17;14.30;;;;;;;15.99;94.78;94675.13;5094772;28;20040;-68
2021/07/06 02:10:54;;;;;;;26.17;14.32;;;;;;;16.01;95.28;94675.66;5088898;28;20520;-68
2021/07/06 02:13:23;;;;;;;34.53;16.85;;;;;;;15.58;97.63;94668.13;5091932;28;20036;-68
2021/07/06 02:15:53;;;;;;;31.02;14.73;;;;;;;15.56;98.73;94678.13;5076884;28;20063;-68
2021/07/06 02:18:21;;;;;;;27.65;16.10;;;;;;;15.62;97.64;94671.00;5089046;28;20044;-69
2021/07/06 02:20:50;;;;;;;25.75;14.48;;;;;;;15.63;96.94;94677.84;5107239;27;20047;-68
2021/07/06 02:23:17;;;;;;;28.48;14.63;;;;;;;15.62;96.51;94668.38;5090417;28;20468;-68
2021/07/06 02:25:44;;;;;;;24.58;13.70;;;;;;;15.61;96.09;94682.56;5090385;28;20036;-69
2021/07/06 02:28:11;;;;;;;29.08;15.77;;;;;;;15.59;95.18;94677.59;5094866;28;20088;-68
2021/07/06 02:30:38;;;;;;;29.55;14.70;;;;;;;15.35;96.90;94666.84;5095512;28;20533;-69
2021/07/06 02:33:05;;;;;;;21.73;14.80;;;;;;;15.49;98.25;94675.75;5094280;28;20040;-69
2021/07/06 02:35:31;;;;;;;30.67;14.20;;;;;;;15.54;97.04;94685.47;5095154;28;20048;-68
2021/07/06 02:38:00;;;;;;;29.58;14.10;;;;;;;15.44;96.26;94681.00;5093308;28;20040;-68
2021/07/06 02:40:27;;;;;;;37.20;16.90;;;;;;;15.38;96.27;94670.81;5088659;28;20040;-68
2021/07/06 02:42:55;;;;;;;25.88;14.32;;;;;;;15.42;96.48;94677.88;5094450;28;20057;-68
2021/07/06 02:45:23;;;;;;;32.22;13.82;;;;;;;15.49;96.27;94677.59;5090202;28;20437;-68
2021/07/06 02:47:50;;;;;;;27.65;14.13;;;;;;;15.44;96.24;94680.22;5088911;28;20048;-68
2021/07/06 02:50:19;;;;;;;32.15;14.85;;;;;;;15.48;95.69;94684.69;5088250;28;20044;-68
2021/07/06 02:52:46;;;;;;;28.23;15.25;;;;;;;15.47;95.89;94696.22;5093130;28;20036;-68
2021/07/06 02:55:14;;;;;;;39.00;14.25;;;;;;;15.42;95.69;94693.59;5091425;28;20044;-68
2021/07/06 02:57:41;;;;;;;29.95;16.55;;;;;;;15.44;95.63;94702.00;5088203;28;20086;-69
2021/07/06 03:00:11;;;;;;;24.38;15.60;;;;;;;15.46;95.50;94702.53;5073135;28;20052;-68
2021/07/06 03:02:40;;;;;;;39.22;22.13;;;;;;;15.45;95.76;94708.84;5087895;28;20085;-68
2021/07/06 03:05:10;;;;;;;35.33;20.58;;;;;;;15.61;96.97;94706.19;5088373;28;20044;-68
2021/07/06 03:07:38;;;;;;;38.60;23.83;;;;;;;15.70;97.20;94714.31;5088821;28;20524;-68
2021/07/06 03:10:08;;;;;;;33.47;22.80;;;;;;;15.76;96.68;94713.28;5071244;28;20044;-68
2021/07/06 03:12:36;;;;;;;56.25;37.42;;;;;;;15.78;95.20;94717.22;5089062;28;20040;-68
2021/07/06 03:15:05;;;;;;;41.38;27.35;;;;;;;15.71;95.18;94715.91;5088256;28;20048;-68
2021/07/06 03:17:32;;;;;;;36.97;25.02;;;;;;;15.65;95.08;94704.63;5071603;28;20040;-68
2021/07/06 03:20:01;;;;;;;36.42;26.63;;;;;;;15.72;95.41;94723.50;5089853;28;20056;-69
2021/07/06 03:22:29;;;;;;;47.63;29.92;;;;;;;15.70;96.82;94720.38;5089154;28;20055;-69
2021/07/06 03:24:56;;;;;;;48.58;32.42;;;;;;;15.61;97.16;94708.81;5091035;28;20036;-69
2021/07/06 03:27:24;;;;;;;48.70;31.60;;;;;;;15.71;96.32;94737.69;5089290;28;20069;-69
2021/07/06 03:29:51;;;;;;;49.05;29.13;;;;;;;15.41;98.13;94728.78;5092087;28;20048;-69
2021/07/06 03:32:18;;;;;;;41.00;28.83;;;;;;;15.41;97.96;94723.53;5090761;28;20044;-68
2021/07/06 03:34:46;;;;;;;52.50;29.85;;;;;;;15.52;98.02;94734.00;5071826;28;20158;-69
2021/07/06 03:37:13;;;;;;;37.47;25.35;;;;;;;15.62;98.28;94744.50;5088275;28;20413;-69
2021/07/06 03:39:41;;;;;;;36.55;25.98;;;;;;;15.70;97.82;94748.44;5085926;28;20066;-69
2021/07/06 03:42:09;;;;;;;41.58;24.58;;;;;;;15.74;97.17;94742.44;5086203;28;20040;-68
2021/07/06 03:44:37;;;;;;;41.40;25.92;;;;;;;15.81;97.17;94750.81;5090500;28;20524;-68
2021/07/06 03:47:05;;;;;;;36.92;23.85;;;;;;;15.84;97.22;94752.91;5088217;28;20044;-68
2021/07/06 03:49:33;;;;;;;36.92;23.20;;;;;;;15.84;98.08;94745.03;5087962;28;20417;-68
2021/07/06 03:52:00;;;;;;;40.92;19.83;;;;;;;15.95;98.45;94752.88;5090270;28;20050;-68
2021/07/06 03:54:27;;;;;;;30.20;17.70;;;;;;;15.92;97.92;94746.34;5091746;28;20036;-68
2021/07/06 03:56:54;;;;;;;30.52;17.58;;;;;;;15.99;98.35;94743.41;5087182;28;20044;-68
2021/07/06 03:59:21;;;;;;;32.60;18.52;;;;;;;16.06;98.55;94759.69;5088908;28;20460;-68
2021/07/06 04:01:50;;;;;;;30.58;18.20;;;;;;;16.11;98.89;94751.78;5087661;28;20441;-68
2021/07/06 04:04:17;;;;;;;30.25;16.95;;;;;;;16.14;98.68;94745.25;5090248;28;20032;-68
2021/07/06 04:06:44;;;;;;;34.92;17.48;;;;;;;16.27;99.10;94754.38;5090290;28;20050;-68
2021/07/06 04:09:11;;;;;;;27.10;19.20;;;;;;;16.21;100.00;94736.00;5088624;28;20044;-69
2021/07/06 04:11:39;;;;;;;31.45;18.83;;;;;;;16.32;100.00;94747.28;5088120;28;20145;-69
2021/07/06 04:14:06;;;;;;;22.38;17.30;;;;;;;16.46;100.00;94755.38;5086809;28;20047;-69
2021/07/06 04:16:33;;;;;;;25.27;18.20;;;;;;;16.58;100.00;94766.38;5088602;28;20036;-69
2021/07/06 04:19:00;;;;;;;25.50;17.88;;;;;;;16.66;100.00;94766.84;5086934;28;20066;-68
2021/07/06 04:21:27;;;;;;;21.60;18.67;;;;;;;16.70;100.00;94768.66;5086857;28;20101;-69
2021/07/06 04:23:54;;;;;;;31.38;19.52;;;;;;;16.78;100.00;94769.94;5087311;28;20039;-69
2021/07/06 04:26:20;;;;;;;23.25;18.10;;;;;;;16.80;100.00;94773.09;5071243;28;20125;-69
2021/07/06 04:28:48;;;;;;;25.95;19.90;;;;;;;16.82;100.00;94768.34;5071112;28;20051;-69
2021/07/06 04:31:15;;;;;;;27.67;19.17;;;;;;;16.90;100.00;94783.56;5089587;28;20058;-69
2021/07/06 04:33:41;;;;;;;25.13;21.00;;;;;;;16.85;100.00;94775.72;5086914;28;20040;-69
2021/07/06 04:36:08;;;;;;;37.55;21.92;;;;;;;16.79;100.00;94782.03;5089171;28;20040;-69
2021/07/06 04:38:35;;;;;;;31.83;21.60;;;;;;;16.70;100.00;94791.56;5085258;28;20043;-69
2021/07/06 04:41:02;;;;;;;30.35;20.05;;;;;;;16.68;100.00;94791.03;5066902;28;20047;-69
2021/07/06 04:43:29;;;;;;;30.13;18.52;;;;;;;16.84;100.00;94799.69;5065845;28;20059;-69
2021/07/06 04:45:55;;;;;;;21.42;18.23;;;;;;;16.97;100.00;94810.38;5083997;28;20043;-69
2021/07/06 04:48:22;;;;;;;32.28;19.98;;;;;;;16.91;100.00;94795.69;5083760;28;20114;-69
2021/07/06 04:50:49;;;;;;;26.60;21.27;;;;;;;16.89;100.00;94813.59;5084386;28;20051;-69
2021/07/06 04:53:16;;;;;;;32.50;19.90;;;;;;;16.78;100.00;94812.00;5086399;28;20039;-69
2021/07/06 04:55:43;;;;;;;28.83;22.05;;;;;;;16.83;100.00;94809.38;5051679;28;21235;-68
2021/07/06 04:58:10;;;;;;;31.40;20.42;;;;;;;16.89;100.00;94808.31;5086085;28;20044;-69
2021/07/06 05:00:37;;;;;;;26.13;18.50;;;;;;;17.08;100.00;94815.59;5086095;28;20480;-69
2021/07/06 05:03:03;;;;;;;29.50;18.85;;;;;;;17.09;100.00;94806.66;5084932;28;20036;-69
2021/07/06 05:05:30;;;;;;;25.00;18.00;;;;;;;17.00;100.00;94809.84;5085492;28;20113;-69
2021/07/06 05:07:57;;;;;;;32.78;19.15;;;;;;;16.86;100.00;94803.59;5085335;28;20028;-69
2021/07/06 05:10:24;;;;;;;30.65;18.08;;;;;;;16.96;100.00;94819.34;5085271;28;20040;-69
2021/07/06 05:12:51;;;;;;;31.58;19.65;;;;;;;17.09;100.00;94819.81;5085424;28;20434;-69
2021/07/06 05:15:18;;;;;;;28.90;18.85;;;;;;;17.14;100.00;94814.50;5085653;28;20097;-70
2021/07/06 05:17:46;;;;;;;36.38;18.08;;;;;;;17.29;100.00;94817.03;5086035;28;20051;-70
2021/07/06 05:20:13;;;;;;;22.77;18.52;;;;;;;17.46;100.00;94818.50;5085721;28;20040;-69
2021/07/06 05:22:42;;;;;;;23.95;19.13;;;;;;;17.53;100.00;94811.09;5085385;28;20066;-68
2021/07/06 05:25:10;;;;;;;28.88;19.13;;;;;;;17.71;100.00;94823.56;5085872;28;20047;-68
2021/07/06 05:27:37;;;;;;;22.83;17.63;;;;;;;17.69;100.00;94817.81;5085549;28;20043;-68
2021/07/06 05:30:05;;;;;;;22.55;18.70;;;;;;;17.75;100.00;94829.88;5085350;28;20478;-69
2021/07/06 05:32:33;;;;;;;26.55;19.42;;;;;;;17.81;100.00;94829.81;5085895;28;20409;-69
2021/07/06 05:35:00;;;;;;;22.95;18.73;;;;;;;17.88;100.00;94835.59;5085897;28;20055;-69
2021/07/06 05:37:27;;;;;;;30.73;20.33;;;;;;;18.09;100.00;94834.34;5067222;28;20044;-70
2021/07/06 05:39:54;;;;;;;25.38;20.00;;;;;;;18.18;99.75;94841.66;5084673;28;20583;-69
2021/07/06 05:42:21;;;;;;;27.35;20.73;;;;;;;18.30;100.00;94834.16;5084905;28;20048;-68
2021/07/06 05:44:48;;;;;;;23.55;18.55;;;;;;;18.37;99.82;94821.44;5084803;28;20082;-68
2021/07/06 05:47:15;;;;;;;23.35;19.17;;;;;;;18.58;98.64;94839.66;5067162;28;20068;-68
2021/07/06 05:49:42;;;;;;;23.70;18.60;;;;;;;18.67;96.83;94840.63;5084343;28;20054;-68
2021/07/06 05:52:09;;;;;;;28.15;18.77;;;;;;;18.85;97.04;94850.47;5067442;28;20050;-69
2021/07/06 05:54:35;;;;;;;22.45;16.60;;;;;;;18.99;97.39;94844.50;5085585;28;20050;-68
2021/07/06 05:57:02;;;;;;;21.02;16.58;;;;;;;19.11;95.81;94847.50;5085774;28;20422;-68
2021/07/06 05:59:29;;;;;;;20.17;16.15;;;;;;;19.27;94.86;94850.75;5101086;28;20054;-68
2021/07/06 06:01:56;;;;;;;26.50;16.95;;;;;;;19.39;94.63;94847.66;5085498;28;20043;-69
2021/07/06 06:04:23;;;;;;;25.88;17.00;;;;;;;19.44;94.17;94844.94;5085449;28;20040;-69
2021/07/06 06:06:50;;;;;;;21.77;16.95;;;;;;;19.50;92.72;94833.25;5084939;28;20639;-69
2021/07/06 06:09:17;;;;;;;22.40;16.00;;;;;;;19.55;91.28;94846.38;5085323;28;20398;-69
2021/07/06 06:11:44;;;;;;;21.30;16.20;;;;;;;19.59;91.28;94836.81;5085295;28;20048;-69
2021/07/06 06:14:11;;;;;;;20.85;16.85;;;;;;;19.67;90.53;94833.50;5067632;28;20516;-68
2021/07/06 06:16:40;;;;;;;17.00;15.20;;;;;;;19.72;89.89;94823.94;5085648;28;20048;-69
2021/07/06 06:19:07;;;;;;;23.85;16.27;;;;;;;19.84;91.19;94822.44;5085536;28;20044;-69
2021/07/06 06:21:34;;;;;;;24.13;15.50;;;;;;;20.02;89.27;94839.34;5067247;28;20463;-70
2021/07/06 06:24:01;;;;;;;18.98;15.00;;;;;;;20.21;87.89;94835.84;5085379;28;20044;-69
2021/07/06 06:26:27;;;;;;;19.25;15.30;;;;;;;20.23;87.92;94815.19;5085272;28;20055;-69
2021/07/06 06:28:54;;;;;;;19.58;13.65;;;;;;;20.39;85.39;94821.75;5086970;28;20062;-69
2021/07/06 06:31:21;;;;;;;18.52;15.20;;;;;;;20.44;85.68;94819.03;5086813;28;20040;-68
2021/07/06 06:33:48;;;;;;;18.88;14.25;;;;;;;20.61;87.01;94829.03;5087186;28;20581;-68
2021/07/06 06:36:15;;;;;;;19.65;14.77;;;;;;;20.81;84.94;94830.53;5066149;28;20040;-68
2021/07/06 06:38:42;;;;;;;17.55;14.73;;;;;;;20.90;84.54;94827.16;5085085;28;20481;-69
2021/07/06 06:41:09;;;;;;;19.95;13.48;;;;;;;21.07;83.28;94819.41;5084496;28;20044;-69
2021/07/06 06:43:36;;;;;;;19.88;13.93;;;;;;;21.22;82.67;94828.88;5085507;28;20044;-69
2021/07/06 06:46:03;;;;;;;17.52;13.98;;;;;;;21.30;83.15;94824.72;5086374;28;20036;-69
2021/07/06 06:48:30;;;;;;;16.75;12.88;;;;;;;21.46;80.70;94835.81;5085340;28;20050;-69
2021/07/06 06:50:56;;;;;;;16.10;12.27;;;;;;;21.56;79.35;94840.88;5085158;28;20044;-69
2021/07/06 06:53:23;;;;;;;11.63;10.40;;;;;;;21.61;79.00;94838.13;5086809;28;20044;-69
2021/07/06 06:55:50;;;;;;;18.40;11.30;;;;;;;21.71;77.40;94837.09;5090131;28;20795;-69
2021/07/06 06:58:17;;;;;;;12.35;10.43;;;;;;;21.81;77.03;94842.16;5070857;28;20032;-69
2021/07/06 07:00:44;;;;;;;18.15;11.02;;;;;;;21.89;76.51;94833.47;5088273;28;20044;-69
2021/07/06 07:03:11;;;;;;;16.02;11.50;;;;;;;22.00;76.60;94834.00;5087546;28;20044;-69
2021/07/06 07:05:38;;;;;;;14.07;11.52;;;;;;;22.16;77.74;94837.06;5087500;28;20036;-69
2021/07/06 07:08:05;;;;;;;12.55;11.30;;;;;;;22.30;77.58;94832.47;5088431;28;20036;-69
2021/07/06 07:10:31;;;;;;;15.77;11.57;;;;;;;22.37;75.32;94839.22;5070599;28;20048;-68
2021/07/06 07:12:58;;;;;;;14.30;11.48;;;;;;;22.46;75.70;94829.44;5088550;28;20048;-68
2021/07/06 07:15:25;;;;;;;19.45;11.00;;;;;;;22.52;74.53;94820.25;5070520;28;20105;-69
2021/07/06 07:17:52;;;;;;;14.13;10.40;;;;;;;22.69;74.20;94828.28;5088314;28;20564;-69
2021/07/06 07:20:19;;;;;;;13.10;10.70;;;;;;;22.76;73.62;94832.34;5088646;28;20043;-69
2021/07/06 07:22:46;;;;;;;13.30;10.55;;;;;;;22.82;73.21;94831.13;5088563;28;20040;-69
2021/07/06 07:25:14;;;;;;;12.90;10.75;;;;;;;22.71;71.82;94820.78;5089951;28;20537;-70
2021/07/06 07:27:42;;;;;;;14.20;10.77;;;;;;;22.85;72.96;94820.66;5088498;28;20050;-70
2021/07/06 07:30:12;;;;;;;20.45;10.23;;;;;;;23.02;72.34;94817.25;5088855;28;20040;-69
2021/07/06 07:32:39;;;;;;;18.05;10.27;;;;;;;23.07;71.50;94819.81;5088143;28;20047;-69
2021/07/06 07:35:06;;;;;;;11.15;10.00;;;;;;;23.19;72.80;94813.09;5069547;28;20067;-70
2021/07/06 07:37:33;;;;;;;13.90;10.15;;;;;;;23.45;70.35;94824.50;5088222;28;20050;-70
2021/07/06 07:40:01;;;;;;;13.43;9.18;;;;;;;23.70;70.53;94811.53;5086867;28;20054;-70
2021/07/06 07:42:27;;;;;;;12.88;9.68;;;;;;;23.78;66.97;94817.94;5087751;28;20153;-70
2021/07/06 07:44:54;;;;;;;9.73;8.35;;;;;;;23.85;66.31;94812.94;5087836;28;20601;-69
2021/07/06 07:47:21;;;;;;;13.60;10.13;;;;;;;23.93;67.28;94809.50;5087976;28;20050;-70
2021/07/06 07:49:48;;;;;;;11.25;9.32;;;;;;;24.11;67.93;94820.88;5087638;28;20477;-69
2021/07/06 07:52:15;;;;;;;11.57;8.50;;;;;;;24.18;65.20;94809.75;5088020;28;20055;-70
2021/07/06 07:54:41;;;;;;;14.20;9.25;;;;;;;24.37;64.03;94817.34;5087705;28;20043;-69
2021/07/06 07:57:11;;;;;;;18.20;9.20;;;;;;;24.53;63.13;94815.75;5088809;28;20036;-70
2021/07/06 07:59:38;;;;;;;13.85;8.10;;;;;;;24.65;62.92;94812.44;5087508;28;20102;-70
2021/07/06 08:02:05;;;;;;;10.32;8.85;;;;;;;24.69;62.80;94807.25;5087968;28;20117;-71
2021/07/06 08:04:33;;;;;;;10.70;8.23;;;;;;;24.75;61.71;94817.38;5085035;28;20039;-70
2021/07/06 08:07:00;;;;;;;18.63;7.78;;;;;;;24.78;61.27;94816.75;5086869;28;20086;-70
2021/07/06 08:09:27;;;;;;;13.85;8.05;;;;;;;24.86;59.60;94807.13;5088990;28;20510;-70
2021/07/06 08:11:54;;;;;;;12.30;7.50;;;;;;;24.98;60.16;94801.88;5087424;28;20047;-70
2021/07/06 08:14:21;;;;;;;12.52;7.75;;;;;;;24.99;60.07;94800.81;5087579;28;20039;-70
2021/07/06 08:16:51;;;;;;;10.75;6.53;;;;;;;25.27;61.03;94813.66;5087273;28;20044;-70
2021/07/06 08:19:18;;;;;;;7.72;6.63;;;;;;;25.59;57.28;94814.03;5086962;28;20044;-70
2021/07/06 08:21:44;;;;;;;8.20;6.32;;;;;;;25.65;55.83;94818.03;5087756;28;20463;-69
2021/07/06 08:24:11;;;;;;;7.70;6.35;;;;;;;25.66;55.39;94819.63;5088431;28;20040;-70
2021/07/06 08:26:38;;;;;;;14.05;6.07;;;;;;;25.72;55.11;94815.63;5087258;28;20051;-69
2021/07/06 08:29:05;;;;;;;9.98;6.82;;;;;;;25.80;54.50;94829.22;5087149;28;20051;-69
2021/07/06 08:31:33;;;;;;;7.10;6.40;;;;;;;25.72;54.40;94826.31;5087294;28;20050;-69
2021/07/06 08:34:00;;;;;;;10.07;7.07;;;;;;;25.74;55.74;94808.06;5087007;28;20115;-70
2021/07/06 08:36:26;;;;;;;8.48;6.40;;;;;;;25.90;54.93;94826.16;5087799;28;20052;-69
2021/07/06 08:38:54;;;;;;;10.02;6.43;;;;;;;26.09;56.00;94815.78;5069267;28;20036;-70
2021/07/06 08:41:22;;;;;;;11.50;5.57;;;;;;;26.38;52.50;94814.06;5070382;28;20050;-70
2021/07/06 08:43:51;;;;;;;11.35;6.72;;;;;;;26.65;53.39;94822.53;5086769;28;20032;-70
2021/07/06 08:46:20;;;;;;;7.28;5.47;;;;;;;26.80;51.71;94824.56;5082269;28;20122;-69
2021/07/06 08:48:50;;;;;;;9.40;6.30;;;;;;;27.03;51.68;94826.78;5087271;28;20113;-69
2021/07/06 08:51:21;;;;;;;6.03;5.38;;;;;;;27.29;51.39;94823.75;5084622;28;20048;-70
2021/07/06 08:53:50;;;;;;;9.18;6.10;;;;;;;27.46;51.65;94828.06;5085950;28;20509;-69
2021/07/06 08:56:18;;;;;;;9.68;6.43;;;;;;;27.74;49.29;94821.97;5068962;28;20046;-70
2021/07/06 08:58:45;;;;;;;6.30;5.70;;;;;;;27.85;48.77;94812.31;5086199;28;20528;-69
2021/07/06 09:01:13;;;;;;;11.10;6.05;;;;;;;27.94;47.95;94818.31;5086664;28;20040;-70
2021/07/06 09:03:55;;;;;;;6.30;5.70;;;;;;;28.18;48.04;94824.66;5085849;28;20101;-70
2021/07/06 09:06:23;;;;;;;10.20;6.00;;;;;;;28.30;47.69;94835.31;5085871;28;20052;-69
2021/07/06 09:08:52;;;;;;;14.30;5.90;;;;;;;28.34;47.32;94836.19;5085817;28;20048;-70
2021/07/06 09:11:20;;;;;;;7.95;6.43;;;;;;;28.49;46.75;94833.88;5085370;28;20044;-69
2021/07/06 09:13:48;;;;;;;16.17;5.88;;;;;;;28.53;45.64;94834.72;5086733;28;22046;-69
2021/07/06 09:16:21;;;;;;;7.25;6.47;;;;;;;28.45;46.29;94832.97;5084647;28;20059;-69
2021/07/06 09:18:49;;;;;;;13.27;5.80;;;;;;;28.45;45.99;94816.91;5087175;28;20056;-69
2021/07/06 09:21:16;;;;;;;6.93;6.10;;;;;;;28.59;45.99;94833.34;5084203;28;20036;-70
2021/07/06 09:23:49;;;;;;;11.30;6.28;;;;;;;28.67;46.54;94824.38;5102484;27;20678;-70
2021/07/06 09:26:22;;;;;;;8.80;6.10;;;;;;;28.71;46.46;94835.94;5083802;28;20120;-70
2021/07/06 09:28:54;;;;;;;6.05;5.40;;;;;;;28.92;47.09;94834.91;5083249;28;20059;-70
2021/07/06 09:31:31;;;;;;;10.05;6.10;;;;;;;28.89;45.76;94825.66;5084678;28;20032;-70
2021/07/06 09:34:12;;;;;;;7.97;6.03;;;;;;;29.19;45.60;94821.72;5085622;28;20135;-69
2021/07/06 09:36:48;;;;;;;6.30;5.05;;;;;;;29.37;44.00;94822.91;5087597;28;20513;-70
2021/07/06 09:39:19;;;;;;;8.75;6.43;;;;;;;29.17;45.00;94816.69;5085794;28;20044;-70
2021/07/06 09:42:03;;;;;;;8.07;6.28;;;;;;;29.04;44.43;94832.09;5084567;28;20452;-70
2021/07/06 09:44:40;;;;;;;9.20;6.55;;;;;;;28.47;43.64;94826.16;5084213;28;20040;-69
2021/07/06 09:47:10;;;;;;;8.18;5.75;;;;;;;28.30;46.23;94816.56;5085852;28;20117;-70
2021/07/06 09:49:52;;;;;;;7.97;5.40;;;;;;;28.26;44.31;94821.06;5067166;28;20054;-69
2021/07/06 09:52:20;;;;;;;10.65;5.93;;;;;;;28.32;45.43;94827.69;5085058;28;20050;-69
2021/07/06 09:54:49;;;;;;;8.88;5.50;;;;;;;28.31;44.24;94823.47;5086218;28;20066;-69
2021/07/06 09:57:36;;;;;;;8.68;5.68;;;;;;;28.38;45.28;94817.53;5084253;28;20055;-69
2021/07/06 10:00:07;;;;;;;9.93;5.32;;;;;;;28.48;44.17;94824.25;5099669;28;20047;-69
2021/07/06 10:02:44;;;;;;;6.70;5.57;;;;;;;28.56;45.01;94824.13;5087676;28;20934;-69
2021/07/06 10:05:16;;;;;;;7.80;6.07;;;;;;;28.59;44.84;94825.31;5083414;28;20036;-69
2021/07/06 10:07:43;;;;;;;7.78;5.40;;;;;;;28.66;43.77;94814.78;5084646;28;20070;-68
2021/07/06 10:10:13;;;;;;;7.57;5.40;;;;;;;28.61;44.41;94801.63;5084467;28;20044;-68
2021/07/06 10:12:42;;;;;;;9.15;5.38;;;;;;;28.75;42.86;94815.38;5083835;28;20055;-69
2021/07/06 10:15:11;;;;;;;6.80;5.35;;;;;;;28.86;43.49;94814.84;5085500;28;20127;-69
2021/07/06 10:17:49;;;;;;;8.80;5.60;;;;;;;28.58;46.27;94799.66;5084399;28;20060;-68
2021/07/06 10:20:24;;;;;;;5.95;5.35;;;;;;;28.72;45.46;94816.09;5084851;28;20540;-68
2021/07/06 10:22:59;;;;;;;8.35;4.97;;;;;;;28.84;45.61;94817.09;5083981;28;20070;-69
2021/07/06 10:25:31;;;;;;;5.50;5.00;;;;;;;29.10;44.27;94809.28;5078876;28;20429;-69
2021/07/06 10:28:01;;;;;;;10.93;5.03;;;;;;;29.85;41.91;94818.09;5086505;28;20055;-69
2021/07/06 10:30:44;;;;;;;12.80;5.18;;;;;;;30.42;39.89;94809.56;5093981;28;20040;-69
2021/07/06 10:33:41;;;;;;;8.95;5.53;;;;;;;30.69;38.98;94808.44;5091094;28;20040;-69
2021/07/06 10:36:11;;;;;;;7.07;5.03;;;;;;;30.49;40.21;94807.75;5065424;28;20058;-69
2021/07/06 10:39:03;;;;;;;8.05;5.32;;;;;;;30.83;41.09;94807.91;5089049;28;20668;-69
2021/07/06 10:41:36;;;;;;;7.70;4.93;;;;;;;30.94;40.71;94805.41;5087345;28;20036;-69
2021/07/06 10:44:05;;;;;;;10.77;5.25;;;;;;;30.99;41.05;94805.09;5073847;28;20058;-68
2021/07/06 10:46:38;;;;;;;15.63;5.07;;;;;;;31.00;38.62;94803.94;5090515;28;20548;-68
2021/07/06 10:49:14;;;;;;;10.57;4.90;;;;;;;31.04;39.31;94795.91;5091423;28;20451;-69
2021/07/06 10:51:41;;;;;;;5.38;4.55;;;;;;;31.11;38.71;94800.63;5088274;28;20044;-69
2021/07/06 10:54:14;;;;;;;7.82;5.13;;;;;;;31.02;36.76;94796.28;5080045;28;20063;-69
2021/07/06 10:56:43;;;;;;;10.07;4.47;;;;;;;31.42;36.28;94797.59;5090553;28;20494;-69
2021/07/06 10:59:24;;;;;;;7.68;4.57;;;;;;;31.71;35.29;94795.28;5088351;28;20044;-69
2021/07/06 11:02:02;;;;;;;6.65;4.97;;;;;;;32.29;34.52;94790.50;5088828;28;20820;-69
2021/07/06 11:04:49;;;;;;;7.22;4.70;;;;;;;32.56;33.97;94794.56;5089310;28;20040;-68
2021/07/06 11:07:28;;;;;;;9.35;4.45;;;;;;;32.93;34.05;94795.59;5087659;28;20047;-68
2021/07/06 11:09:55;;;;;;;8.57;4.38;;;;;;;33.17;32.81;94799.66;5087788;28;20040;-68
2021/07/06 11:12:29;;;;;;;8.85;4.53;;;;;;;32.81;33.49;94785.91;5088486;28;20071;-68
2021/07/06 11:14:58;;;;;;;8.00;4.85;;;;;;;32.49;32.96;94783.72;5087950;28;20035;-68
2021/07/06 11:17:40;;;;;;;6.30;4.28;;;;;;;32.48;33.92;94787.56;5090665;28;20101;-68
2021/07/06 11:20:18;;;;;;;6.47;4.45;;;;;;;32.93;33.61;94790.97;5088026;28;20105;-69
2021/07/06 11:22:56;;;;;;;8.02;4.38;;;;;;;33.37;33.12;94793.94;5088227;28;20054;-69
2021/07/06 11:25:31;;;;;;;8.80;4.13;;;;;;;33.70;32.46;94790.25;5088434;28;20769;-68